createdAt,value
2022-08-03T00:00:00.242Z,17
2022-08-03T00:01:01.326Z,12
2022-08-03T00:02:02.272Z,11
2022-08-03T00:03:03.266Z,10
2022-08-03T00:04:04.287Z,11
2022-08-03T00:05:06.303Z,12
2022-08-03T00:06:07.272Z,12
2022-08-03T00:07:08.252Z,11
2022-08-03T00:08:09.219Z,11
2022-08-03T00:09:10.243Z,14
2022-08-03T00:10:11.236Z,12
2022-08-03T00:11:12.273Z,12
2022-08-03T00:12:13.490Z,11
2022-08-03T00:13:14.254Z,11
2022-08-03T00:14:15.331Z,11
2022-08-03T00:15:17.084Z,11
2022-08-03T00:16:17.278Z,11
2022-08-03T00:17:18.272Z,12
2022-08-03T00:18:19.197Z,12
2022-08-03T00:19:20.592Z,14
2022-08-03T00:20:22.272Z,12
2022-08-03T00:21:23.292Z,12
2022-08-03T00:22:24.273Z,17
2022-08-03T00:23:25.234Z,13
2022-08-03T00:24:26.274Z,12
2022-08-03T00:25:27.312Z,12
2022-08-03T00:26:28.312Z,13
2022-08-03T00:27:29.292Z,14
2022-08-03T00:28:30.273Z,16
2022-08-03T00:29:31.244Z,13
2022-08-03T00:30:32.292Z,12
2022-08-03T00:31:40.299Z,13
2022-08-03T00:32:34.194Z,13
2022-08-03T00:33:57.848Z,13
2022-08-03T00:34:57.432Z,11
2022-08-03T00:35:50.576Z,12
2022-08-03T00:36:38.274Z,12
2022-08-03T00:37:41.104Z,12
2022-08-03T00:38:40.296Z,12
2022-08-03T00:39:41.280Z,14
2022-08-03T00:40:42.213Z,13
2022-08-03T00:41:43.334Z,13
2022-08-03T00:42:44.273Z,13
2022-08-03T00:43:45.253Z,13
2022-08-03T00:44:46.251Z,14
2022-08-03T00:45:47.272Z,13
2022-08-03T00:46:48.376Z,13
2022-08-03T00:47:49.278Z,14
2022-08-03T00:48:50.673Z,14
2022-08-03T00:49:52.373Z,14
2022-08-03T00:50:54.274Z,15
2022-08-03T00:51:55.177Z,14
2022-08-03T00:52:56.293Z,14
2022-08-03T00:53:57.295Z,14
2022-08-03T00:54:58.352Z,14
2022-08-03T00:55:59.318Z,14
2022-08-03T00:57:00.604Z,14
2022-08-03T00:58:01.335Z,14
2022-08-03T00:59:02.295Z,14
2022-08-03T01:00:03.684Z,13
2022-08-03T01:04:03.395Z,14
2022-08-03T01:05:05.315Z,14
2022-08-03T01:06:06.295Z,14
2022-08-03T01:07:10.742Z,14
2022-08-03T01:08:09.274Z,14
2022-08-03T01:09:10.295Z,14
2022-08-03T01:10:11.255Z,14
2022-08-03T01:11:12.255Z,14
2022-08-03T01:12:13.475Z,15
2022-08-03T01:13:59.416Z,14
2022-08-03T01:14:18.432Z,16
2022-08-03T01:15:16.323Z,16
2022-08-03T01:16:17.262Z,16
2022-08-03T01:17:18.295Z,16
2022-08-03T01:18:19.415Z,16
2022-08-03T01:19:20.277Z,16
2022-08-03T01:20:21.294Z,16
2022-08-03T01:21:22.255Z,17
2022-08-03T01:22:23.237Z,18
2022-08-03T01:23:24.294Z,17
2022-08-03T01:24:25.255Z,17
2022-08-03T01:25:26.294Z,17
2022-08-03T01:26:27.275Z,17
2022-08-03T01:27:28.274Z,18
2022-08-03T01:28:29.323Z,19
2022-08-03T01:29:30.353Z,18
2022-08-03T01:30:31.300Z,19
2022-08-03T01:31:32.257Z,18
2022-08-03T01:32:51.966Z,18
2022-08-03T01:33:34.295Z,18
2022-08-03T01:34:35.274Z,18
2022-08-03T01:35:38.474Z,18
2022-08-03T01:36:37.286Z,18
2022-08-03T01:37:38.626Z,18
2022-08-03T01:38:39.378Z,19
2022-08-03T01:39:40.335Z,19
2022-08-03T01:40:41.302Z,18
2022-08-03T01:41:42.294Z,18
2022-08-03T01:42:43.304Z,18
2022-08-03T01:43:55.561Z,17
2022-08-03T01:44:45.339Z,17
2022-08-03T01:45:46.275Z,17
2022-08-03T01:46:47.817Z,17
2022-08-03T01:47:48.273Z,18
2022-08-03T01:48:49.297Z,17
2022-08-03T01:49:50.854Z,18
2022-08-03T01:50:52.294Z,18
2022-08-03T01:51:57.705Z,18
2022-08-03T01:52:54.294Z,18
2022-08-03T01:53:55.274Z,18
2022-08-03T01:54:56.296Z,18
2022-08-03T01:55:57.315Z,18
2022-08-03T01:56:58.334Z,18
2022-08-03T01:58:05.017Z,18
2022-08-03T01:59:00.275Z,18
2022-08-03T02:00:01.428Z,18
2022-08-03T02:01:02.376Z,18
2022-08-03T02:02:15.709Z,19
2022-08-03T02:03:04.396Z,19
2022-08-03T02:04:05.276Z,19
2022-08-03T02:05:10.516Z,19
2022-08-03T02:07:01.014Z,17
2022-08-03T02:07:08.294Z,17
2022-08-03T02:08:09.377Z,17
2022-08-03T02:09:10.335Z,18
2022-08-03T02:10:11.314Z,17
2022-08-03T02:11:12.374Z,19
2022-08-03T02:12:13.411Z,19
2022-08-03T02:13:14.341Z,19
2022-08-03T02:14:15.399Z,19
2022-08-03T02:15:16.513Z,21
2022-08-03T02:16:17.334Z,22
2022-08-03T02:17:18.333Z,22
2022-08-03T02:18:25.455Z,22
2022-08-03T02:19:26.355Z,24
2022-08-03T02:20:27.342Z,24
2022-08-03T02:21:56.174Z,23
2022-08-03T02:22:29.355Z,23
2022-08-03T02:23:30.334Z,22
2022-08-03T02:24:31.338Z,22
2022-08-03T02:25:32.421Z,22
2022-08-03T02:26:33.341Z,23
2022-08-03T02:27:34.395Z,23
2022-08-03T02:28:35.314Z,22
2022-08-03T02:29:38.905Z,22
2022-08-03T02:30:38.475Z,22
2022-08-03T02:31:40.314Z,22
2022-08-03T02:32:41.314Z,22
2022-08-03T02:33:42.393Z,21
2022-08-03T02:34:43.335Z,23
2022-08-03T02:35:44.374Z,23
2022-08-03T02:36:45.393Z,22
2022-08-03T02:37:49.908Z,23
2022-08-03T02:38:47.314Z,22
2022-08-03T02:39:48.333Z,22
2022-08-03T02:40:49.355Z,22
2022-08-03T02:41:50.774Z,22
2022-08-03T02:42:52.339Z,22
2022-08-03T02:44:05.773Z,21
2022-08-03T02:44:54.297Z,22
2022-08-03T02:45:55.294Z,22
2022-08-03T02:46:56.353Z,21
2022-08-03T02:47:57.334Z,21
2022-08-03T02:48:58.429Z,21
2022-08-03T02:49:59.551Z,21
2022-08-03T02:51:01.334Z,21
2022-08-03T02:52:02.334Z,21
2022-08-03T02:53:03.373Z,21
2022-08-03T02:54:04.435Z,21
2022-08-03T02:55:05.295Z,21
2022-08-03T02:56:06.335Z,21
2022-08-03T02:57:07.302Z,21
2022-08-03T02:58:14.533Z,22
2022-08-03T02:59:15.413Z,22
2022-08-03T03:00:19.557Z,21
2022-08-03T03:01:18.038Z,22
2022-08-03T03:02:19.679Z,23
2022-08-03T03:03:21.433Z,22
2022-08-03T03:04:24.974Z,22
2022-08-03T03:05:53.892Z,22
2022-08-03T03:06:25.373Z,22
2022-08-03T03:07:26.374Z,22
2022-08-03T03:08:28.581Z,22
2022-08-03T03:09:29.155Z,21
2022-08-03T03:10:29.393Z,22
2022-08-03T03:11:30.372Z,22
2022-08-03T03:12:31.294Z,22
2022-08-03T03:13:32.378Z,22
2022-08-03T03:14:34.192Z,22
2022-08-03T03:15:34.374Z,21
2022-08-03T03:16:35.355Z,22
2022-08-03T03:17:36.373Z,22
2022-08-03T03:18:37.333Z,23
2022-08-03T03:19:38.352Z,23
2022-08-03T03:20:39.453Z,24
2022-08-03T03:21:40.412Z,22
2022-08-03T03:22:41.353Z,23
2022-08-03T03:23:42.360Z,24
2022-08-03T03:24:43.353Z,22
2022-08-03T03:25:44.401Z,23
2022-08-03T03:26:45.413Z,23
2022-08-03T03:27:47.157Z,22
2022-08-03T03:28:47.357Z,23
2022-08-03T03:29:48.374Z,23
2022-08-03T03:30:52.954Z,23
2022-08-03T03:31:50.895Z,22
2022-08-03T03:32:52.705Z,22
2022-08-03T03:33:54.393Z,22
2022-08-03T03:34:55.373Z,22
2022-08-03T03:35:56.332Z,22
2022-08-03T03:36:57.364Z,22
2022-08-03T03:37:58.361Z,22
2022-08-03T03:38:59.555Z,23
2022-08-03T03:40:00.394Z,23
2022-08-03T03:41:01.340Z,23
2022-08-03T03:42:02.392Z,23
2022-08-03T03:43:03.411Z,22
2022-08-03T03:44:04.362Z,22
2022-08-03T03:45:05.363Z,23
2022-08-03T03:46:06.357Z,22
2022-08-03T03:47:07.385Z,21
2022-08-03T03:48:08.335Z,22
2022-08-03T03:49:09.424Z,22
2022-08-03T03:50:10.372Z,22
2022-08-03T03:51:11.397Z,22
2022-08-03T03:52:12.392Z,23
2022-08-03T03:53:13.394Z,22
2022-08-03T03:54:14.369Z,23
2022-08-03T03:55:15.354Z,22
2022-08-03T03:56:16.373Z,21
2022-08-03T03:57:17.380Z,21
2022-08-03T03:58:18.334Z,25
2022-08-03T03:59:19.434Z,22
2022-08-03T04:00:20.375Z,22
2022-08-03T04:01:21.393Z,22
2022-08-03T04:02:22.382Z,21
2022-08-03T04:03:23.414Z,22
2022-08-03T04:04:24.472Z,21
2022-08-03T04:05:25.373Z,22
2022-08-03T04:06:26.372Z,22
2022-08-03T04:07:27.353Z,23
2022-08-03T04:08:28.373Z,22
2022-08-03T04:09:29.400Z,22
2022-08-03T04:10:30.433Z,22
2022-08-03T04:11:31.776Z,22
2022-08-03T04:12:32.432Z,23
2022-08-03T04:13:33.392Z,23
2022-08-03T04:14:34.373Z,22
2022-08-03T04:15:35.434Z,23
2022-08-03T04:16:37.973Z,23
2022-08-03T04:17:37.372Z,23
2022-08-03T04:18:38.337Z,22
2022-08-03T04:19:39.432Z,22
2022-08-03T04:20:40.374Z,22
2022-08-03T04:21:41.352Z,22
2022-08-03T04:22:42.412Z,22
2022-08-03T04:23:43.413Z,24
2022-08-03T04:24:44.435Z,23
2022-08-03T04:25:45.374Z,23
2022-08-03T04:26:49.606Z,24
2022-08-03T04:27:47.413Z,24
2022-08-03T04:28:48.461Z,23
2022-08-03T04:29:49.338Z,22
2022-08-03T04:30:51.012Z,23
2022-08-03T04:31:52.455Z,23
2022-08-03T04:32:53.453Z,23
2022-08-03T04:33:54.352Z,24
2022-08-03T04:34:55.432Z,23
2022-08-03T04:36:02.440Z,23
2022-08-03T04:36:57.474Z,23
2022-08-03T04:37:58.460Z,22
2022-08-03T04:38:59.553Z,23
2022-08-03T04:40:01.482Z,23
2022-08-03T04:41:02.412Z,22
2022-08-03T04:42:07.756Z,24
2022-08-03T04:43:04.397Z,24
2022-08-03T04:44:05.462Z,23
2022-08-03T04:45:06.473Z,23
2022-08-03T04:46:08.512Z,24
2022-08-03T04:47:10.482Z,23
2022-08-03T04:48:12.532Z,24
2022-08-03T04:49:14.654Z,21
2022-08-03T04:50:19.484Z,22
2022-08-03T04:51:17.533Z,22
2022-08-03T04:52:19.514Z,22
2022-08-03T04:53:20.353Z,22
2022-08-03T04:54:21.454Z,23
2022-08-03T04:55:22.414Z,23
2022-08-03T04:56:23.393Z,23
2022-08-03T04:57:24.472Z,23
2022-08-03T04:58:25.394Z,23
2022-08-03T04:59:26.453Z,23
2022-08-03T05:00:27.476Z,24
2022-08-03T05:01:28.443Z,23
2022-08-03T05:02:29.496Z,22
2022-08-03T05:03:30.453Z,22
2022-08-03T05:04:31.534Z,23
2022-08-03T05:05:48.827Z,24
2022-08-03T05:06:35.481Z,24
2022-08-03T05:07:36.809Z,24
2022-08-03T05:08:41.236Z,24
2022-08-03T05:09:48.943Z,24
2022-08-03T05:10:39.513Z,23
2022-08-03T05:11:40.433Z,23
2022-08-03T05:12:41.501Z,23
2022-08-03T05:13:42.434Z,24
2022-08-03T05:14:43.413Z,23
2022-08-03T05:15:44.496Z,24
2022-08-03T05:16:45.418Z,24
2022-08-03T05:17:46.475Z,23
2022-08-03T05:18:47.434Z,22
2022-08-03T05:19:48.433Z,21
2022-08-03T05:20:49.472Z,21
2022-08-03T05:21:52.770Z,23
2022-08-03T05:22:52.417Z,21
2022-08-03T05:23:53.494Z,21
2022-08-03T05:24:54.453Z,19
2022-08-03T05:25:55.473Z,19
2022-08-03T05:26:56.453Z,19
2022-08-03T05:27:57.453Z,21
2022-08-03T05:28:58.433Z,19
2022-08-03T05:30:26.660Z,21
2022-08-03T05:31:01.458Z,19
2022-08-03T05:32:06.317Z,18
2022-08-03T05:33:03.503Z,18
2022-08-03T05:34:04.474Z,19
2022-08-03T05:35:55.344Z,19
2022-08-03T05:36:06.473Z,18
2022-08-03T05:37:07.518Z,18
2022-08-03T05:38:09.473Z,18
2022-08-03T05:39:10.393Z,18
2022-08-03T05:40:11.473Z,19
2022-08-03T05:41:20.713Z,18
2022-08-03T05:42:13.599Z,17
2022-08-03T05:43:14.521Z,18
2022-08-03T05:44:15.455Z,16
2022-08-03T05:45:16.433Z,17
2022-08-03T05:46:17.442Z,15
2022-08-03T05:47:18.486Z,14
2022-08-03T05:48:19.513Z,14
2022-08-03T05:49:20.547Z,14
2022-08-03T05:50:21.376Z,13
2022-08-03T05:51:22.394Z,14
2022-08-03T05:52:23.750Z,13
2022-08-03T05:53:27.133Z,13
2022-08-03T05:54:55.667Z,13
2022-08-03T05:55:29.454Z,13
2022-08-03T05:56:30.475Z,13
2022-08-03T05:57:31.453Z,14
2022-08-03T05:58:32.514Z,13
2022-08-03T05:59:38.352Z,13
2022-08-03T06:00:34.494Z,13
2022-08-03T06:01:35.577Z,13
2022-08-03T06:02:36.433Z,14
2022-08-03T06:03:37.454Z,13
2022-08-03T06:04:38.455Z,13
2022-08-03T06:05:43.269Z,12
2022-08-03T06:06:40.573Z,13
2022-08-03T06:07:41.454Z,14
2022-08-03T06:08:42.533Z,12
2022-08-03T06:10:33.335Z,12
2022-08-03T06:10:44.537Z,11
2022-08-03T06:11:45.474Z,10
2022-08-03T06:12:46.394Z,10
2022-08-03T06:13:47.453Z,12
2022-08-03T06:14:48.514Z,11
2022-08-03T06:15:49.473Z,12
2022-08-03T06:16:50.475Z,11
2022-08-03T06:17:51.443Z,11
2022-08-03T06:18:52.455Z,12
2022-08-03T06:19:53.461Z,12
2022-08-03T06:20:55.009Z,13
2022-08-03T06:21:55.483Z,11
2022-08-03T06:22:59.966Z,11
2022-08-03T06:23:57.516Z,11
2022-08-03T06:24:58.476Z,10
2022-08-03T06:25:59.575Z,10
2022-08-03T06:27:00.562Z,11
2022-08-03T06:28:01.482Z,9
2022-08-03T06:29:03.864Z,10
2022-08-03T06:30:03.593Z,12
2022-08-03T06:31:06.491Z,11
2022-08-03T06:32:05.554Z,11
2022-08-03T06:33:08.197Z,12
2022-08-03T06:34:32.073Z,12
2022-08-03T06:35:08.515Z,11
2022-08-03T06:36:09.535Z,10
2022-08-03T06:37:10.539Z,11
2022-08-03T06:38:11.495Z,11
2022-08-03T06:39:12.495Z,11
2022-08-03T06:40:13.858Z,11
2022-08-03T06:41:14.564Z,10
2022-08-03T06:42:15.677Z,10
2022-08-03T06:43:16.496Z,11
2022-08-03T06:44:17.694Z,10
2022-08-03T06:45:19.576Z,10
2022-08-03T06:46:20.474Z,11
2022-08-03T06:47:21.379Z,11
2022-08-03T06:48:22.595Z,11
2022-08-03T06:49:24.596Z,11
2022-08-03T06:50:26.234Z,11
2022-08-03T06:52:02.805Z,10
2022-08-03T06:52:37.383Z,11
2022-08-03T06:53:28.418Z,11
2022-08-03T06:54:32.828Z,10
2022-08-03T06:55:30.535Z,10
2022-08-03T06:56:31.470Z,10
2022-08-03T06:57:32.515Z,11
2022-08-03T06:58:33.495Z,11
2022-08-03T07:00:06.727Z,10
2022-08-03T07:00:35.496Z,10
2022-08-03T07:01:36.508Z,10
2022-08-03T07:02:37.515Z,10
2022-08-03T07:03:38.543Z,11
2022-08-03T07:04:39.574Z,11
2022-08-03T07:05:40.475Z,10
2022-08-03T07:06:41.454Z,10
2022-08-03T07:07:42.535Z,10
2022-08-03T07:08:43.562Z,10
2022-08-03T07:09:53.212Z,9
2022-08-03T07:10:45.500Z,10
2022-08-03T07:11:46.455Z,10
2022-08-03T07:12:52.895Z,11
2022-08-03T07:13:48.571Z,10
2022-08-03T07:14:49.494Z,10
2022-08-03T07:15:54.723Z,9
2022-08-03T07:16:51.535Z,10
2022-08-03T07:17:53.483Z,9
2022-08-03T07:18:54.495Z,9
2022-08-03T07:19:55.515Z,9
2022-08-03T07:20:56.531Z,10
2022-08-03T07:21:58.363Z,9
2022-08-03T07:22:58.474Z,9
2022-08-03T07:23:59.615Z,8
2022-08-03T07:25:00.557Z,8
2022-08-03T07:26:01.534Z,8
2022-08-03T07:27:02.635Z,9
2022-08-03T07:28:04.570Z,8
2022-08-03T07:29:10.919Z,10
2022-08-03T07:30:07.574Z,10
2022-08-03T07:31:09.514Z,10
2022-08-03T07:32:10.628Z,11
2022-08-03T07:33:11.516Z,10
2022-08-03T07:34:12.941Z,10
2022-08-03T07:35:24.332Z,9
2022-08-03T07:36:15.515Z,9
2022-08-03T07:37:16.503Z,9
2022-08-03T07:38:20.852Z,9
2022-08-03T07:39:18.555Z,8
2022-08-03T07:40:19.603Z,8
2022-08-03T07:41:20.521Z,8
2022-08-03T07:42:21.575Z,8
2022-08-03T07:43:23.594Z,8
2022-08-03T07:44:24.535Z,9
2022-08-03T07:45:25.515Z,10
2022-08-03T07:46:26.646Z,9
2022-08-03T07:47:35.150Z,9
2022-08-03T07:48:28.514Z,9
2022-08-03T07:49:29.648Z,8
2022-08-03T07:50:30.638Z,9
2022-08-03T07:51:31.475Z,9
2022-08-03T07:52:32.542Z,8
2022-08-03T07:53:33.534Z,9
2022-08-03T07:54:34.574Z,8
2022-08-03T07:55:35.614Z,8
2022-08-03T07:56:36.517Z,8
2022-08-03T07:57:37.515Z,8
2022-08-03T07:58:38.534Z,8
2022-08-03T07:59:49.015Z,9
2022-08-03T08:00:40.714Z,8
2022-08-03T08:01:41.727Z,8
2022-08-03T08:02:43.496Z,9
2022-08-03T08:03:49.903Z,9
2022-08-03T08:04:45.513Z,9
2022-08-03T08:05:46.514Z,8
2022-08-03T08:06:47.514Z,8
2022-08-03T08:07:50.699Z,9
2022-08-03T08:08:49.534Z,9
2022-08-03T08:09:50.558Z,7
2022-08-03T08:10:56.591Z,9
2022-08-03T08:11:52.675Z,9
2022-08-03T08:12:54.534Z,8
2022-08-03T08:13:55.553Z,8
2022-08-03T08:14:56.514Z,7
2022-08-03T08:15:57.478Z,9
2022-08-03T08:16:58.514Z,8
2022-08-03T08:17:59.554Z,8
2022-08-03T08:19:00.555Z,7
2022-08-03T08:20:01.556Z,8
2022-08-03T08:21:02.539Z,7
2022-08-03T08:22:03.582Z,8
2022-08-03T08:23:06.953Z,10
2022-08-03T08:24:09.480Z,10
2022-08-03T08:25:06.585Z,10
2022-08-03T08:26:07.675Z,9
2022-08-03T08:27:09.574Z,8
2022-08-03T08:28:21.950Z,8
2022-08-03T08:29:12.514Z,9
2022-08-03T08:30:17.326Z,8
2022-08-03T08:31:14.515Z,8
2022-08-03T08:32:15.787Z,8
2022-08-03T08:33:22.907Z,9
2022-08-03T08:34:17.575Z,8
2022-08-03T08:35:18.554Z,7
2022-08-03T08:36:19.736Z,8
2022-08-03T08:37:20.555Z,8
2022-08-03T08:38:21.533Z,8
2022-08-03T08:39:22.596Z,8
2022-08-03T08:40:23.593Z,8
2022-08-03T08:41:24.594Z,7
2022-08-03T08:42:25.623Z,7
2022-08-03T08:43:27.617Z,7
2022-08-03T08:44:28.593Z,7
2022-08-03T08:45:29.675Z,7
2022-08-03T08:46:30.594Z,7
2022-08-03T08:47:50.715Z,8
2022-08-03T08:48:32.575Z,8
2022-08-03T08:49:33.677Z,9
2022-08-03T08:50:34.614Z,6
2022-08-03T08:51:50.664Z,6
2022-08-03T08:52:37.673Z,7
2022-08-03T08:53:39.635Z,7
2022-08-03T08:54:40.633Z,7
2022-08-03T08:55:56.673Z,7
2022-08-03T08:56:42.570Z,7
2022-08-03T08:57:43.698Z,7
2022-08-03T08:58:44.528Z,8
2022-08-03T08:59:48.046Z,8
2022-08-03T09:00:46.599Z,8
2022-08-03T09:01:47.589Z,7
2022-08-03T09:02:48.594Z,8
2022-08-03T09:03:49.575Z,7
2022-08-03T09:04:50.588Z,8
2022-08-03T09:05:56.000Z,9
2022-08-03T09:07:53.614Z,7
2022-08-03T09:08:54.713Z,8
2022-08-03T09:10:08.560Z,7
2022-08-03T09:10:57.595Z,7
2022-08-03T09:12:14.545Z,8
2022-08-03T09:12:59.658Z,8
2022-08-03T09:14:00.633Z,7
2022-08-03T09:15:16.258Z,9
2022-08-03T09:16:02.713Z,10
2022-08-03T09:17:03.635Z,8
2022-08-03T09:18:04.599Z,8
2022-08-03T09:19:05.622Z,9
2022-08-03T09:20:06.674Z,8
2022-08-03T09:21:24.453Z,8
2022-08-03T09:22:08.553Z,8
2022-08-03T09:23:33.400Z,9
2022-08-03T09:24:20.831Z,8
2022-08-03T09:25:26.354Z,9
2022-08-03T09:26:12.534Z,8
2022-08-03T09:27:13.572Z,8
2022-08-03T09:28:33.749Z,7
2022-08-03T09:29:15.683Z,9
2022-08-03T09:30:19.167Z,8
2022-08-03T09:31:17.641Z,8
2022-08-03T09:32:18.694Z,9
2022-08-03T09:33:20.615Z,8
2022-08-03T09:34:21.617Z,8
2022-08-03T09:35:27.965Z,7
2022-08-03T09:36:23.553Z,7
2022-08-03T09:37:26.073Z,7
2022-08-03T09:38:25.593Z,8
2022-08-03T09:39:26.848Z,8
2022-08-03T09:40:27.553Z,7
2022-08-03T09:41:28.612Z,7
2022-08-03T09:42:29.572Z,7
2022-08-03T09:43:30.634Z,7
2022-08-03T09:44:31.633Z,8
2022-08-03T09:45:32.615Z,7
2022-08-03T09:46:33.602Z,8
2022-08-03T09:47:34.776Z,8
2022-08-03T09:48:35.578Z,8
2022-08-03T09:49:36.665Z,8
2022-08-03T09:50:37.574Z,7
2022-08-03T09:52:33.398Z,8
2022-08-03T09:52:49.559Z,7
2022-08-03T09:53:42.654Z,7
2022-08-03T09:54:43.613Z,8
2022-08-03T09:56:31.075Z,8
2022-08-03T09:56:45.594Z,9
2022-08-03T09:57:46.655Z,9
2022-08-03T09:58:47.659Z,9
2022-08-03T09:59:48.595Z,8
2022-08-03T10:00:49.657Z,9
2022-08-03T10:01:50.574Z,8
2022-08-03T10:02:51.713Z,9
2022-08-03T10:04:03.713Z,8
2022-08-03T10:04:53.575Z,9
2022-08-03T10:05:59.162Z,8
2022-08-03T10:06:55.634Z,7
2022-08-03T10:07:56.597Z,7
2022-08-03T10:08:57.673Z,8
2022-08-03T10:09:58.593Z,8
2022-08-03T10:10:59.613Z,8
2022-08-03T10:12:00.633Z,8
2022-08-03T10:13:01.552Z,8
2022-08-03T10:14:02.693Z,8
2022-08-03T10:15:03.795Z,8
2022-08-03T10:16:20.826Z,9
2022-08-03T10:17:05.694Z,11
2022-08-03T10:18:06.722Z,8
2022-08-03T10:19:07.641Z,8
2022-08-03T10:20:08.693Z,8
2022-08-03T10:21:09.634Z,7
2022-08-03T10:22:10.654Z,6
2022-08-03T10:23:11.656Z,7
2022-08-03T10:24:12.533Z,7
2022-08-03T10:25:13.700Z,9
2022-08-03T10:26:14.613Z,10
2022-08-03T10:27:15.861Z,8
2022-08-03T10:28:16.644Z,8
2022-08-03T10:29:18.274Z,8
2022-08-03T10:30:19.693Z,8
2022-08-03T10:31:20.633Z,8
2022-08-03T10:32:21.633Z,7
2022-08-03T10:33:49.370Z,8
2022-08-03T10:34:23.673Z,9
2022-08-03T10:35:24.715Z,8
2022-08-03T10:36:25.693Z,7
2022-08-03T10:37:26.614Z,7
2022-08-03T10:38:27.594Z,7
2022-08-03T10:39:28.556Z,7
2022-08-03T10:41:30.783Z,8
2022-08-03T10:42:31.639Z,7
2022-08-03T10:43:32.694Z,8
2022-08-03T10:44:33.593Z,8
2022-08-03T10:45:34.692Z,9
2022-08-03T10:46:35.634Z,8
2022-08-03T10:47:36.693Z,8
2022-08-03T10:48:37.653Z,8
2022-08-03T10:49:38.782Z,7
2022-08-03T10:50:40.704Z,9
2022-08-03T10:51:41.594Z,10
2022-08-03T10:52:43.562Z,8
2022-08-03T10:53:44.106Z,8
2022-08-03T10:54:44.632Z,8
2022-08-03T10:55:45.714Z,8
2022-08-03T10:56:49.648Z,8
2022-08-03T10:57:48.946Z,7
2022-08-03T10:58:53.642Z,9
2022-08-03T10:59:49.633Z,7
2022-08-03T11:00:50.704Z,8
2022-08-03T11:01:59.336Z,8
2022-08-03T11:02:52.605Z,8
2022-08-03T11:03:53.619Z,9
2022-08-03T11:04:54.654Z,9
2022-08-03T11:05:55.723Z,9
2022-08-03T11:06:56.639Z,8
2022-08-03T11:07:57.613Z,9
2022-08-03T11:08:58.673Z,8
2022-08-03T11:09:59.734Z,8
2022-08-03T11:11:00.766Z,8
2022-08-03T11:12:01.633Z,8
2022-08-03T11:13:02.721Z,8
2022-08-03T11:14:03.761Z,6
2022-08-03T11:15:04.733Z,8
2022-08-03T11:16:07.146Z,8
2022-08-03T11:17:06.645Z,8
2022-08-03T11:18:07.658Z,8
2022-08-03T11:19:08.686Z,8
2022-08-03T11:20:09.755Z,7
2022-08-03T11:21:10.676Z,7
2022-08-03T11:22:11.653Z,8
2022-08-03T11:23:12.676Z,9
2022-08-03T11:24:13.633Z,7
2022-08-03T11:25:34.748Z,7
2022-08-03T11:26:15.731Z,7
2022-08-03T11:27:16.903Z,8
2022-08-03T11:28:17.736Z,7
2022-08-03T11:29:18.653Z,7
2022-08-03T11:30:19.753Z,7
2022-08-03T11:31:39.536Z,8
2022-08-03T11:32:21.713Z,7
2022-08-03T11:33:22.662Z,7
2022-08-03T11:34:23.638Z,6
2022-08-03T11:35:24.692Z,8
2022-08-03T11:36:32.195Z,7
2022-08-03T11:37:32.951Z,8
2022-08-03T11:38:28.674Z,7
2022-08-03T11:39:32.702Z,7
2022-08-03T11:40:33.686Z,8
2022-08-03T11:41:42.694Z,7
2022-08-03T11:42:35.721Z,7
2022-08-03T11:43:36.701Z,8
2022-08-03T11:44:37.613Z,7
2022-08-03T11:45:38.654Z,8
2022-08-03T11:46:39.674Z,8
2022-08-03T11:47:50.417Z,8
2022-08-03T11:48:41.694Z,7
2022-08-03T11:49:42.737Z,7
2022-08-03T11:50:43.700Z,7
2022-08-03T11:51:44.809Z,7
2022-08-03T11:52:46.741Z,8
2022-08-03T11:53:47.674Z,6
2022-08-03T11:54:48.644Z,6
2022-08-03T11:55:49.688Z,7
2022-08-03T11:56:50.665Z,6
2022-08-03T11:58:57.239Z,8
2022-08-03T11:59:00.422Z,6
2022-08-03T11:59:53.715Z,7
2022-08-03T12:00:54.734Z,8
2022-08-03T12:01:55.653Z,8
2022-08-03T12:02:56.856Z,7
2022-08-03T12:03:58.845Z,7
2022-08-03T12:04:59.774Z,7
2022-08-03T12:06:00.693Z,9
2022-08-03T12:07:01.663Z,9
2022-08-03T12:08:06.281Z,9
2022-08-03T12:09:04.643Z,7
2022-08-03T12:10:05.694Z,6
2022-08-03T12:11:06.663Z,7
2022-08-03T12:12:07.714Z,8
2022-08-03T12:13:57.277Z,7
2022-08-03T12:14:45.905Z,7
2022-08-03T12:15:11.735Z,7
2022-08-03T12:16:12.674Z,8
2022-08-03T12:17:13.647Z,7
2022-08-03T12:18:14.714Z,8
2022-08-03T12:19:15.714Z,9
2022-08-03T12:20:16.641Z,9
2022-08-03T12:21:17.734Z,8
2022-08-03T12:22:18.693Z,7
2022-08-03T12:23:19.768Z,7
2022-08-03T12:24:20.782Z,8
2022-08-03T12:25:25.790Z,7
2022-08-03T12:26:22.739Z,7
2022-08-03T12:27:23.834Z,9
2022-08-03T12:28:28.451Z,7
2022-08-03T12:29:26.755Z,7
2022-08-03T12:30:27.754Z,8
2022-08-03T12:31:28.713Z,8
2022-08-03T12:32:29.670Z,7
2022-08-03T12:33:30.695Z,7
2022-08-03T12:34:31.696Z,10
2022-08-03T12:35:32.736Z,9
2022-08-03T12:36:33.694Z,9
2022-08-03T12:37:34.982Z,7
2022-08-03T12:38:36.367Z,8
2022-08-03T12:39:36.662Z,9
2022-08-03T12:40:37.756Z,8
2022-08-03T12:41:38.705Z,9
2022-08-03T12:42:39.748Z,7
2022-08-03T12:43:40.692Z,7
2022-08-03T12:44:41.673Z,7
2022-08-03T12:45:42.734Z,6
2022-08-03T12:46:47.655Z,6
2022-08-03T12:47:44.714Z,6
2022-08-03T12:48:45.714Z,7
2022-08-03T12:49:46.773Z,6
2022-08-03T12:50:47.814Z,8
2022-08-03T12:51:48.644Z,8
2022-08-03T12:52:49.694Z,7
2022-08-03T12:53:50.814Z,7
2022-08-03T12:54:51.734Z,6
2022-08-03T12:55:57.498Z,8
2022-08-03T12:56:53.716Z,6
2022-08-03T12:57:54.713Z,6
2022-08-03T12:58:55.813Z,6
2022-08-03T12:59:57.773Z,6
2022-08-03T13:00:58.797Z,7
2022-08-03T13:01:59.755Z,7
2022-08-03T13:03:27.615Z,7
2022-08-03T13:04:01.674Z,7
2022-08-03T13:05:02.802Z,8
2022-08-03T13:06:03.794Z,7
2022-08-03T13:07:04.738Z,8
2022-08-03T13:08:05.802Z,7
2022-08-03T13:09:06.793Z,7
2022-08-03T13:10:08.382Z,9
2022-08-03T13:11:08.834Z,8
2022-08-03T13:12:10.797Z,8
2022-08-03T13:13:11.796Z,7
2022-08-03T13:14:13.586Z,8
2022-08-03T13:15:13.774Z,8
2022-08-03T13:16:19.118Z,7
2022-08-03T13:17:15.645Z,6
2022-08-03T13:18:17.228Z,7
2022-08-03T13:19:17.715Z,8
2022-08-03T13:20:19.133Z,8
2022-08-03T13:21:20.783Z,8
2022-08-03T13:22:21.734Z,9
2022-08-03T13:23:22.922Z,8
2022-08-03T13:24:23.728Z,7
2022-08-03T13:25:24.756Z,8
2022-08-03T13:26:25.775Z,8
2022-08-03T13:28:02.975Z,7
2022-08-03T13:28:27.933Z,7
2022-08-03T13:29:29.739Z,8
2022-08-03T13:30:30.808Z,8
2022-08-03T13:31:31.735Z,7
2022-08-03T13:32:32.773Z,8
2022-08-03T13:33:33.862Z,7
2022-08-03T13:34:34.714Z,8
2022-08-03T13:35:35.774Z,7
2022-08-03T13:36:59.356Z,8
2022-08-03T13:37:37.774Z,7
2022-08-03T13:38:38.822Z,8
2022-08-03T13:39:48.473Z,8
2022-08-03T13:40:42.814Z,7
2022-08-03T13:41:43.704Z,7
2022-08-03T13:42:44.738Z,7
2022-08-03T13:43:45.734Z,7
2022-08-03T13:44:46.755Z,7
2022-08-03T13:45:51.377Z,7
2022-08-03T13:46:48.755Z,7
2022-08-03T13:47:49.756Z,9
2022-08-03T13:48:50.854Z,7
2022-08-03T13:49:54.449Z,6
2022-08-03T13:50:53.834Z,6
2022-08-03T13:51:54.616Z,6
2022-08-03T13:52:55.814Z,6
2022-08-03T13:53:56.814Z,7
2022-08-03T13:54:57.754Z,7
2022-08-03T13:55:58.814Z,6
2022-08-03T13:57:00.779Z,8
2022-08-03T13:58:01.683Z,7
2022-08-03T13:59:01.775Z,7
2022-08-03T14:00:03.318Z,9
2022-08-03T14:01:04.836Z,8
2022-08-03T14:02:05.842Z,8
2022-08-03T14:03:14.011Z,10
2022-08-03T14:04:15.871Z,9
2022-08-03T14:05:08.797Z,8
2022-08-03T14:06:09.781Z,8
2022-08-03T14:07:10.775Z,9
2022-08-03T14:08:11.793Z,8
2022-08-03T14:09:12.834Z,8
2022-08-03T14:10:13.764Z,8
2022-08-03T14:11:14.700Z,8
2022-08-03T14:12:15.794Z,8
2022-08-03T14:13:17.768Z,7
2022-08-03T14:14:17.802Z,7
2022-08-03T14:15:18.801Z,7
2022-08-03T14:16:19.778Z,7
2022-08-03T14:17:23.124Z,7
2022-08-03T14:18:28.034Z,8
2022-08-03T14:19:24.988Z,8
2022-08-03T14:20:36.505Z,7
2022-08-03T14:21:24.755Z,7
2022-08-03T14:22:25.721Z,7
2022-08-03T14:23:26.774Z,9
2022-08-03T14:24:27.794Z,8
2022-08-03T14:25:28.818Z,8
2022-08-03T14:26:29.795Z,8
2022-08-03T14:27:30.855Z,8
2022-08-03T14:28:31.814Z,9
2022-08-03T14:29:32.855Z,7
2022-08-03T14:30:33.902Z,8
2022-08-03T14:32:10.551Z,7
2022-08-03T14:32:36.795Z,7
2022-08-03T14:33:37.894Z,7
2022-08-03T14:34:38.730Z,8
2022-08-03T14:35:39.868Z,8
2022-08-03T14:36:40.987Z,7
2022-08-03T14:37:42.867Z,7
2022-08-03T14:38:44.733Z,7
2022-08-03T14:40:01.537Z,6
2022-08-03T14:40:47.954Z,6
2022-08-03T14:41:49.835Z,6
2022-08-03T14:42:50.849Z,8
2022-08-03T14:44:00.371Z,8
2022-08-03T14:44:54.443Z,8
2022-08-03T14:45:53.906Z,8
2022-08-03T14:46:54.734Z,8
2022-08-03T14:49:02.973Z,9
2022-08-03T14:50:12.626Z,9
2022-08-03T14:50:35.244Z,8
2022-08-03T14:51:00.769Z,7